This is the latest recevied weather packets stored in our database for station/object OK1PNK-5. If no packets are shown the sender has not sent any weather packets the latest 10 day(s).
| Time | Temp. | Humidity | Pressure | Rain* | Wind** | Luminosity | Snow |
|---|---|---|---|---|---|---|---|
| 1777350999 | 5.56° C | 58% | 978.9 hPa | 0 mm | - | - | - |
| 1777350399 | 5.56° C | 58% | 978.8 hPa | 0 mm | - | - | - |
| 1777349799 | 6.11° C | 57% | 978.8 hPa | 0 mm | - | - | - |
| 1777349199 | 6.11° C | 56% | 978.7 hPa | 0 mm | - | - | - |
| 1777348599 | 6.11° C | 56% | 978.8 hPa | 0 mm | - | - | - |
| 1777347999 | 6.67° C | 55% | 978.9 hPa | 0 mm | - | - | - |
| 1777347400 | 6.67° C | 53% | 978.7 hPa | 0 mm | - | - | - |
| 1777346799 | 6.67° C | 53% | 978.7 hPa | 0 mm | - | - | - |
| 1777346199 | 6.67° C | 53% | 978.7 hPa | 0 mm | - | - | - |
| 1777345599 | 6.67° C | 53% | 978.7 hPa | 0 mm | - | - | - |
| 1777344999 | 6.67° C | 53% | 978.7 hPa | 0 mm | - | - | - |
| 1777344399 | 6.67° C | 53% | 978.8 hPa | 0 mm | - | - | - |
| 1777343799 | 6.67° C | 53% | 978.7 hPa | 0 mm | - | - | - |
| 1777343199 | 6.67° C | 52% | 978.7 hPa | 0 mm | - | - | - |
| 1777341999 | 7.22° C | 51% | 978.8 hPa | 0 mm | - | - | - |
| 1777341399 | 7.22° C | 51% | 978.9 hPa | 0 mm | - | - | - |
| 1777340799 | 7.22° C | 51% | 978.9 hPa | 0 mm | - | - | - |
| 1777340199 | 8.33° C | 47% | 979 hPa | 0 mm | - | - | - |
| 1777338999 | 8.33° C | 47% | 979 hPa | 0 mm | - | - | - |
| 1777338399 | 8.33° C | 47% | 979 hPa | 0 mm | - | - | - |
| 1777337799 | 8.33° C | 47% | 979 hPa | 0 mm | - | - | - |
| 1777337199 | 8.33° C | 46% | 979 hPa | 0 mm | - | - | - |
| 1777335999 | 8.89° C | 45% | 979.1 hPa | 0 mm | - | - | - |
| 1777335399 | 8.89° C | 45% | 979.1 hPa | 0 mm | - | - | - |
| 1777313799 | 16.67° C | 27% | 978.1 hPa | 0 mm | - | - | - |
* Rain latest hour (hover to see other rain measurements)
** Current wind speed in m/s (hover to see current wind gust speed)